createdAt,value
2023-03-16T00:07:05.428Z,1018.44
2023-03-16T00:17:12.243Z,1018.45
2023-03-16T00:27:19.297Z,1018.52
2023-03-16T00:37:26.146Z,1018.56
2023-03-16T00:47:33.210Z,1018.59
2023-03-16T00:57:40.071Z,1018.61
2023-03-16T01:07:47.323Z,1018.68
2023-03-16T01:17:53.957Z,1018.65
2023-03-16T01:28:00.465Z,1018.70
2023-03-16T01:38:07.899Z,1018.72
2023-03-16T01:48:14.297Z,1018.53
2023-03-16T01:58:21.180Z,1018.56
2023-03-16T02:08:28.461Z,1018.51
2023-03-16T02:18:35.604Z,1018.52
2023-03-16T02:28:42.309Z,1018.45
2023-03-16T02:38:49.290Z,1018.49
2023-03-16T02:48:56.836Z,1018.49
2023-03-16T02:59:04.044Z,1018.58
2023-03-16T03:09:10.767Z,1018.69
2023-03-16T03:19:18.018Z,1018.77
2023-03-16T03:29:25.112Z,1018.88
2023-03-16T03:39:32.178Z,1018.92
2023-03-16T03:49:38.969Z,1018.86
2023-03-16T03:59:45.999Z,1018.94
2023-03-16T04:09:53.146Z,1018.95
2023-03-16T04:20:00.145Z,1018.93
2023-03-16T04:30:07.073Z,1018.93
2023-03-16T04:40:13.919Z,1018.95
2023-03-16T04:50:20.933Z,1019.01
2023-03-16T05:00:28.258Z,1019.05
2023-03-16T05:10:35.919Z,1019.10
2023-03-16T05:20:42.285Z,1019.13
2023-03-16T05:30:49.140Z,1019.19
2023-03-16T05:40:56.425Z,1019.16
2023-03-16T05:51:03.504Z,1019.30
2023-03-16T06:01:10.453Z,1019.43
2023-03-16T06:11:17.816Z,1019.45
2023-03-16T06:21:24.731Z,1019.44
2023-03-16T06:31:32.139Z,1019.54
2023-03-16T06:41:38.978Z,1019.68
2023-03-16T06:51:44.790Z,1019.95
2023-03-16T07:01:51.745Z,1020.00
2023-03-16T07:11:58.475Z,1020.23
2023-03-16T07:22:06.030Z,1020.18
2023-03-16T07:32:14.126Z,1020.26
2023-03-16T07:42:21.613Z,1020.33
2023-03-16T07:52:27.829Z,1020.32
2023-03-16T08:02:34.336Z,1020.44
2023-03-16T08:12:41.312Z,1020.43
2023-03-16T08:22:48.382Z,1020.53
2023-03-16T08:32:55.563Z,1020.60
2023-03-16T08:43:02.042Z,1020.65
2023-03-16T08:53:08.906Z,1020.72
2023-03-16T09:03:16.492Z,1020.70
2023-03-16T09:13:24.428Z,1020.65
2023-03-16T09:23:32.270Z,1020.73
2023-03-16T09:33:40.356Z,1020.81
2023-03-16T09:43:47.463Z,1020.89
2023-03-16T09:53:54.632Z,1020.91
2023-03-16T10:04:01.651Z,1020.89
2023-03-16T10:14:08.734Z,1020.82
2023-03-16T10:24:15.694Z,1020.80
2023-03-16T10:34:22.647Z,1020.76
2023-03-16T10:44:29.422Z,1020.60
2023-03-16T10:54:35.462Z,1020.61
2023-03-16T11:04:43.079Z,1020.70
2023-03-16T11:14:50.599Z,1020.53
2023-03-16T11:24:57.987Z,1020.43
2023-03-16T11:35:04.801Z,1020.44
2023-03-16T11:45:12.234Z,1020.35
2023-03-16T11:55:19.267Z,1020.29
2023-03-16T12:05:26.358Z,1020.17
2023-03-16T12:15:33.123Z,1020.02
2023-03-16T12:25:41.046Z,1019.89
2023-03-16T12:35:48.042Z,1019.82
2023-03-16T12:45:55.502Z,1019.65
2023-03-16T12:56:02.132Z,1019.61
2023-03-16T13:06:09.323Z,1019.47
2023-03-16T13:16:17.048Z,1019.38
2023-03-16T13:26:24.531Z,1019.37
2023-03-16T13:36:31.780Z,1019.50
2023-03-16T13:46:39.386Z,1019.30
2023-03-16T13:56:46.362Z,1019.22
2023-03-16T14:06:54.492Z,1019.09
2023-03-16T14:17:01.650Z,1019.10
2023-03-16T14:27:08.872Z,1018.98
2023-03-16T14:37:16.183Z,1018.80
2023-03-16T14:47:23.879Z,1018.63
2023-03-16T14:57:31.127Z,1018.50
2023-03-16T15:07:38.067Z,1018.44
2023-03-16T15:17:45.597Z,1018.24
2023-03-16T15:27:52.996Z,1018.36
2023-03-16T15:37:59.877Z,1018.27
2023-03-16T15:48:08.137Z,1018.07
2023-03-16T15:58:15.925Z,1018.05
2023-03-16T16:08:23.011Z,1018.04
2023-03-16T16:18:30.518Z,1018.01
2023-03-16T16:28:37.483Z,1018.01
2023-03-16T16:38:44.146Z,1017.96
2023-03-16T16:48:51.328Z,1017.86
2023-03-16T16:58:58.316Z,1017.79
2023-03-16T17:09:05.308Z,1017.79
2023-03-16T17:19:12.541Z,1017.86
2023-03-16T17:29:19.293Z,1017.81
2023-03-16T17:39:26.443Z,1017.89
2023-03-16T17:49:33.819Z,1017.92
2023-03-16T17:59:40.694Z,1017.66
2023-03-16T18:09:48.145Z,1017.75
2023-03-16T18:19:54.618Z,1017.71
2023-03-16T18:30:01.885Z,1017.60
2023-03-16T18:40:09.036Z,1017.57
2023-03-16T18:50:15.780Z,1017.52
2023-03-16T19:00:22.751Z,1017.48
2023-03-16T19:10:29.778Z,1017.42
2023-03-16T19:20:37.130Z,1017.41
2023-03-16T19:30:43.756Z,1017.37
2023-03-16T19:40:51.126Z,1017.65
2023-03-16T19:50:58.032Z,1017.43
2023-03-16T20:01:05.971Z,1017.41
2023-03-16T20:11:12.947Z,1017.40
2023-03-16T20:21:20.149Z,1017.27
2023-03-16T20:31:27.218Z,1017.26
2023-03-16T20:41:34.195Z,1017.21
2023-03-16T20:51:41.555Z,1017.18
2023-03-16T21:01:48.674Z,1017.06
2023-03-16T21:11:56.113Z,1016.92
2023-03-16T21:22:03.565Z,1016.83
2023-03-16T21:32:10.542Z,1016.73
2023-03-16T21:42:17.586Z,1016.55
2023-03-16T21:52:24.958Z,1016.53
2023-03-16T22:02:31.637Z,1016.31
2023-03-16T22:12:38.438Z,1016.18
2023-03-16T22:22:45.739Z,1016.22
2023-03-16T22:32:52.836Z,1015.97
2023-03-16T22:42:59.880Z,1015.89
2023-03-16T22:53:06.851Z,1015.86
2023-03-16T23:03:14.221Z,1015.76
2023-03-16T23:13:20.977Z,1015.76
2023-03-16T23:23:28.276Z,1015.72
2023-03-16T23:33:35.291Z,1015.59
2023-03-16T23:43:42.218Z,1015.45
2023-03-16T23:53:49.447Z,1015.52
